PHJH METAR and TAF | Updated Today

PHJH METAR

Kapalua Airport

Kapalua Airport (PHJH) hasn't published a METAR.
We found the following current weather conditions for Napili-Honokowai from other sources.

Kapalua Airport (PHJH) METAR

  • Weather conditions right now at PHJH:
  • Present conditions: Clouds
  • Clouds: Few clouds
  • Cloud cover: 15%
  • Wind: 82 at 14kts
  • Temperature: 24.2 celsius
  • Feels like: 25 celsius
  • Pressure: 1022mb
  • Humidity: 88%


Useful to know...

PHJH TAF

Kapalua Airport

PHJH 061858Z 0619/0718 05011KT 5SM -SHRA BKN025 BKN045 FM062000 05015G23KT P6SM FEW030 SCT045 FM070600 06010KT P6SM FEW025 SCT045
Observation time: 34 min. ago
Need help? Read our tutorial on how to read TAFs or read the parsed version below.

Parsed version of TAF for Kapalua Airport (PHJH)

  • From 06 February at 19:00 UTC, to day 07 of the month at 18:00 UTC
  • Clouds: Broken sky at 762 meters; broken sky at 1372 meters
  • Visibility: 8047 meters
  • Wind: 50 degrees at 11
  • Other: Light showers of rain
  • From day 6 of the month at 20:00 UTC
  • Clouds: A few at 914 meters; scattered at 1372 meters
  • Wind: 50 degrees at 15
  • From day 7 of the month at 06:00 UTC
  • Clouds: A few at 762 meters; scattered at 1372 meters
  • Wind: 60 degrees at 10